createdAt,value
2017-09-07T00:01:13.935Z,62.8
2017-09-07T00:11:30.311Z,63.6
2017-09-07T00:21:46.892Z,63.5
2017-09-07T00:32:02.497Z,63.8
2017-09-07T00:42:18.660Z,63.9
2017-09-07T00:52:34.904Z,63.9
2017-09-07T01:02:51.661Z,64.2
2017-09-07T01:13:07.476Z,66.2
2017-09-07T01:23:20.655Z,67.4
2017-09-07T01:33:36.830Z,66.0
2017-09-07T01:43:53.247Z,65.3
2017-09-07T01:54:09.303Z,64.9
2017-09-07T02:04:25.939Z,65.8
2017-09-07T02:14:41.758Z,65.2
2017-09-07T02:24:57.975Z,65.3
2017-09-07T02:35:14.264Z,65.6
2017-09-07T02:45:30.453Z,65.9
2017-09-07T02:55:46.563Z,66.3
2017-09-07T03:06:03.403Z,66.4
2017-09-07T03:16:19.211Z,66.4
2017-09-07T03:26:35.121Z,67.1
2017-09-07T03:36:50.657Z,66.9
2017-09-07T03:47:06.726Z,67.3
2017-09-07T03:57:23.187Z,66.6
2017-09-07T04:07:39.283Z,67.2
2017-09-07T04:17:55.186Z,67.0
2017-09-07T04:28:10.802Z,66.9
2017-09-07T04:38:27.063Z,66.5
2017-09-07T04:48:43.051Z,66.8
2017-09-07T04:58:59.508Z,67.4
2017-09-07T05:09:15.263Z,67.7
2017-09-07T05:19:31.745Z,68.7
2017-09-07T05:29:47.803Z,68.3
2017-09-07T05:40:06.641Z,68.4
2017-09-07T05:50:22.341Z,68.1
2017-09-07T06:00:39.000Z,69.5
2017-09-07T06:10:54.644Z,68.7
2017-09-07T06:21:10.987Z,68.2
2017-09-07T06:31:27.096Z,69.8
2017-09-07T06:41:43.256Z,69.0
2017-09-07T06:51:59.434Z,69.3
2017-09-07T07:02:16.112Z,70.3
2017-09-07T07:12:32.027Z,70.7
2017-09-07T07:22:48.041Z,69.4
2017-09-07T07:33:01.202Z,69.5
2017-09-07T07:43:14.509Z,68.6
2017-09-07T07:54:01.220Z,68.6
2017-09-07T08:04:17.568Z,69.7
2017-09-07T08:14:33.992Z,70.3
2017-09-07T08:24:50.804Z,68.9
2017-09-07T08:35:07.151Z,67.7
2017-09-07T08:45:23.644Z,66.9
2017-09-07T08:56:12.357Z,66.5
2017-09-07T09:06:28.392Z,64.3
2017-09-07T09:16:45.017Z,60.9
2017-09-07T09:27:00.918Z,58.7
2017-09-07T09:37:26.993Z,56.9
2017-09-07T09:47:43.369Z,55.3
2017-09-07T09:57:59.808Z,53.6
2017-09-07T10:08:15.700Z,53.1
2017-09-07T10:18:32.064Z,53.9
2017-09-07T10:28:48.095Z,53.3
2017-09-07T10:39:04.599Z,50.2
2017-09-07T10:49:20.585Z,48.4
2017-09-07T10:59:36.909Z,48.4
2017-09-07T11:09:52.988Z,48.4
2017-09-07T11:20:09.533Z,47.0
2017-09-07T11:30:25.431Z,45.9
2017-09-07T11:40:41.874Z,46.2
2017-09-07T11:50:57.964Z,48.0
2017-09-07T12:01:14.467Z,48.7
2017-09-07T12:11:30.338Z,49.0
2017-09-07T12:21:46.749Z,50.6
2017-09-07T12:32:01.285Z,49.7
2017-09-07T12:42:17.560Z,48.9
2017-09-07T12:52:33.765Z,47.7
2017-09-07T13:02:49.861Z,49.2
2017-09-07T13:13:06.061Z,50.3
2017-09-07T13:23:22.165Z,48.2
2017-09-07T13:34:08.755Z,47.3
2017-09-07T13:44:25.059Z,47.7
2017-09-07T13:54:41.517Z,47.1
2017-09-07T14:04:57.586Z,45.9
2017-09-07T14:15:14.497Z,47.4
2017-09-07T14:25:30.712Z,46.8
2017-09-07T14:35:47.282Z,46.8
2017-09-07T14:46:03.363Z,47.1
2017-09-07T14:56:19.897Z,48.0
2017-09-07T15:06:35.925Z,48.7
2017-09-07T15:17:25.572Z,48.8
2017-09-07T15:27:41.742Z,48.6
2017-09-07T15:37:57.980Z,49.0
2017-09-07T15:48:13.997Z,48.6
2017-09-07T15:58:30.554Z,48.4
2017-09-07T16:08:47.104Z,48.3
2017-09-07T16:19:02.957Z,48.3
2017-09-07T16:29:19.322Z,48.6
2017-09-07T16:39:35.392Z,49.0
2017-09-07T16:49:51.525Z,49.4
2017-09-07T17:00:07.729Z,49.8
2017-09-07T17:10:24.275Z,50.0
2017-09-07T17:20:40.231Z,50.6
2017-09-07T17:30:56.578Z,50.6
2017-09-07T17:41:12.564Z,51.2
2017-09-07T17:51:28.641Z,51.3
2017-09-07T18:01:45.187Z,51.4
2017-09-07T18:12:01.296Z,51.9
2017-09-07T18:22:17.519Z,52.1
2017-09-07T18:32:33.988Z,52.4
2017-09-07T18:42:50.093Z,52.4
2017-09-07T18:53:36.795Z,52.8
2017-09-07T19:03:53.749Z,52.7
2017-09-07T19:14:09.170Z,52.9
2017-09-07T19:24:25.493Z,53.6
2017-09-07T19:34:42.033Z,53.6
2017-09-07T19:44:57.809Z,53.7
2017-09-07T19:55:13.531Z,54.3
2017-09-07T20:05:29.542Z,54.7
2017-09-07T20:15:45.696Z,54.8
2017-09-07T20:26:02.035Z,55.3
2017-09-07T20:36:18.115Z,56.3
2017-09-07T20:46:34.186Z,56.3
2017-09-07T20:56:49.661Z,57.1
2017-09-07T21:07:05.788Z,57.5
2017-09-07T21:17:22.047Z,58.4
2017-09-07T21:27:37.987Z,58.7
2017-09-07T21:37:53.485Z,59.5
2017-09-07T21:48:09.544Z,59.3
2017-09-07T21:58:24.863Z,59.2
2017-09-07T22:08:41.029Z,59.2
2017-09-07T22:18:57.287Z,59.9
2017-09-07T22:29:13.558Z,60.3
2017-09-07T22:39:29.760Z,61.1
2017-09-07T22:49:46.096Z,61.5
2017-09-07T23:00:01.966Z,61.9
2017-09-07T23:10:15.087Z,61.4
2017-09-07T23:20:30.419Z,61.2
2017-09-07T23:30:46.719Z,63.2
2017-09-07T23:41:02.995Z,62.3
2017-09-07T23:55:16.513Z,63.9
